Time;durP1;ratioP1;P1;durP2;ratioP2;P2;SDS_P1;SDS_P2;PMS_P1;PMS_P2;Temp;Humidity;BMP_temperature;BMP_pressure;BME280_temperature;BME280_humidity;BME280_pressure;Samples;Min_cycle;Max_cycle;Signal;HPM_P1;HPM_P2
2021/04/06 12:58:33;;;;;;;5.07;1.90;;;;;;;;;;5066066;28;20822;-77
2021/04/06 13:00:59;;;;;;;3.38;2.08;;;;;;;;;;5081343;28;20039;-76
2021/04/06 13:03:25;;;;;;;4.82;2.15;;;;;;;;;;5079558;28;20032;-77
2021/04/06 13:05:51;;;;;;;5.13;2.15;;;;;;;;;;5086265;27;20050;-77
2021/04/06 13:08:17;;;;;;;9.82;3.10;;;;;;;;;;5085040;28;20036;-77
2021/04/06 13:10:44;;;;;;;6.68;3.10;;;;;;;;;;5068407;27;20028;-77
2021/04/06 13:13:10;;;;;;;5.90;1.63;;;;;;;;;;5069500;28;20017;-77
2021/04/06 13:15:37;;;;;;;4.45;1.48;;;;;;;;;;5064304;27;20048;-77
2021/04/06 13:18:04;;;;;;;4.18;1.83;;;;;;;;;;5064798;27;20024;-77
2021/04/06 13:20:30;;;;;;;5.68;1.65;;;;;;;;;;5065959;27;20047;-77
2021/04/06 13:22:56;;;;;;;7.60;1.17;;;;;;;;;;5062663;27;20402;-77
2021/04/06 13:25:22;;;;;;;5.95;1.65;;;;;;;;;;5066384;27;20032;-77
2021/04/06 13:27:48;;;;;;;2.15;1.00;;;;;;;;;;5054664;28;20035;-77
2021/04/06 13:30:16;;;;;;;2.97;1.08;;;;;;;;;;5086025;27;20028;-77
2021/04/06 13:32:42;;;;;;;4.40;0.90;;;;;;;;;;5084768;28;20099;-77
2021/04/06 13:35:10;;;;;;;1.98;1.00;;;;;;;;;;5068247;28;20056;-77
2021/04/06 13:37:36;;;;;;;2.22;0.68;;;;;;;;;;5066201;28;20021;-78
2021/04/06 13:40:03;;;;;;;1.20;0.70;;;;;;;;;;5067015;28;20489;-77
2021/04/06 13:42:29;;;;;;;2.20;0.80;;;;;;;;;;5065914;28;20020;-77
2021/04/06 13:44:55;;;;;;;2.40;0.60;;;;;;;;;;5048458;28;20097;-77
2021/04/06 13:47:21;;;;;;;2.70;0.45;;;;;;;;;;5066353;28;20029;-77
2021/04/06 13:49:47;;;;;;;2.10;0.43;;;;;;;;;;5064401;28;20029;-76
2021/04/06 13:52:13;;;;;;;2.67;0.63;;;;;;;;;;5065077;27;20487;-77
2021/04/06 13:54:39;;;;;;;2.17;0.68;;;;;;;;;;5065628;27;20024;-76
2021/04/06 13:57:05;;;;;;;3.47;0.98;;;;;;;;;;5080504;27;20039;-76
2021/04/06 13:59:31;;;;;;;2.38;0.70;;;;;;;;;;5083766;27;20020;-77
2021/04/06 14:01:58;;;;;;;5.15;0.75;;;;;;;;;;5077845;27;20025;-76
2021/04/06 14:04:24;;;;;;;3.58;0.88;;;;;;;;;;5062724;27;20052;-76
2021/04/06 14:06:50;;;;;;;3.22;0.63;;;;;;;;;;5064311;28;20036;-76
2021/04/06 14:09:16;;;;;;;2.33;0.70;;;;;;;;;;5075307;28;20030;-77
2021/04/06 14:11:42;;;;;;;3.70;0.85;;;;;;;;;;5066604;28;20100;-76
2021/04/06 14:14:08;;;;;;;2.58;0.90;;;;;;;;;;5051256;28;20029;-76
2021/04/06 14:16:34;;;;;;;1.42;0.60;;;;;;;;;;5050629;28;20029;-77
2021/04/06 14:19:00;;;;;;;1.45;0.60;;;;;;;;;;5052028;28;20101;-76
2021/04/06 14:21:26;;;;;;;1.77;0.50;;;;;;;;;;5050721;28;20021;-76
2021/04/06 14:23:52;;;;;;;3.03;0.90;;;;;;;;;;5055737;28;20020;-76
2021/04/06 14:26:18;;;;;;;2.78;0.47;;;;;;;;;;5051664;28;20036;-76
2021/04/06 14:28:44;;;;;;;2.90;0.98;;;;;;;;;;5032862;28;20033;-76
2021/04/06 14:31:11;;;;;;;1.60;0.45;;;;;;;;;;5049165;28;20021;-77
2021/04/06 14:33:37;;;;;;;7.25;0.50;;;;;;;;;;5048143;27;20576;-77
2021/04/06 14:36:03;;;;;;;1.52;0.50;;;;;;;;;;5032550;28;20067;-77
2021/04/06 14:38:29;;;;;;;2.50;0.50;;;;;;;;;;5049124;28;20029;-77
2021/04/06 14:40:56;;;;;;;1.98;0.47;;;;;;;;;;5050012;28;20132;-77
2021/04/06 14:43:32;;;;;;;2.00;0.52;;;;;;;;;;5048117;28;20025;-77
2021/04/06 14:46:03;;;;;;;1.63;0.55;;;;;;;;;;5048198;28;20033;-77
2021/04/06 14:48:31;;;;;;;2.63;0.70;;;;;;;;;;5047432;28;20037;-77
2021/04/06 14:50:57;;;;;;;2.20;0.50;;;;;;;;;;5049603;28;20025;-77
2021/04/06 14:53:23;;;;;;;2.13;0.43;;;;;;;;;;5048653;28;20029;-77
2021/04/06 14:55:50;;;;;;;1.17;0.30;;;;;;;;;;5049075;28;20029;-77
2021/04/06 14:58:16;;;;;;;1.00;0.40;;;;;;;;;;5050264;28;20454;-78
2021/04/06 15:00:43;;;;;;;3.47;0.60;;;;;;;;;;5051155;28;20436;-77
2021/04/06 15:03:09;;;;;;;3.63;0.75;;;;;;;;;;5045205;28;20018;-73
2021/04/06 15:05:35;;;;;;;1.90;0.60;;;;;;;;;;5050536;28;20029;-78
2021/04/06 15:08:01;;;;;;;3.70;0.85;;;;;;;;;;5050384;27;20029;-77
2021/04/06 15:10:29;;;;;;;2.65;0.63;;;;;;;;;;5048300;28;20029;-77
2021/04/06 15:12:58;;;;;;;2.35;0.60;;;;;;;;;;5047938;28;20033;-78
2021/04/06 15:15:25;;;;;;;2.72;0.60;;;;;;;;;;5049667;28;20032;-76
2021/04/06 15:17:51;;;;;;;2.25;0.60;;;;;;;;;;5031968;28;20400;-77
2021/04/06 15:20:18;;;;;;;5.60;0.60;;;;;;;;;;5047566;28;20022;-78
2021/04/06 15:22:45;;;;;;;1.15;0.40;;;;;;;;;;5048660;28;20020;-77
2021/04/06 15:25:13;;;;;;;2.05;0.52;;;;;;;;;;5050284;28;20032;-77
2021/04/06 15:27:47;;;;;;;1.10;0.40;;;;;;;;;;5047602;28;20028;-78
2021/04/06 15:30:13;;;;;;;2.28;0.35;;;;;;;;;;5050776;28;20564;-78
2021/04/06 15:32:39;;;;;;;1.50;0.40;;;;;;;;;;5050756;28;20029;-77
2021/04/06 15:35:07;;;;;;;1.80;0.90;;;;;;;;;;5053704;28;20037;-77
2021/04/06 15:37:34;;;;;;;1.70;0.43;;;;;;;;;;5050735;28;20078;-77
2021/04/06 15:40:00;;;;;;;1.15;0.30;;;;;;;;;;5048777;28;20013;-77
2021/04/06 15:42:26;;;;;;;1.45;0.40;;;;;;;;;;5043651;28;20553;-77
2021/04/06 15:44:57;;;;;;;1.17;0.38;;;;;;;;;;5048561;28;20029;-78
2021/04/06 15:47:24;;;;;;;2.38;0.55;;;;;;;;;;5055695;28;20426;-75
2021/04/06 15:49:50;;;;;;;1.65;0.45;;;;;;;;;;5055226;28;20496;-79
2021/04/06 15:52:27;;;;;;;2.50;0.90;;;;;;;;;;5055058;28;20029;-77
2021/04/06 15:54:54;;;;;;;2.90;0.40;;;;;;;;;;5044896;27;20765;-77
2021/04/06 15:57:20;;;;;;;0.80;0.40;;;;;;;;;;5043057;28;20074;-78
2021/04/06 15:59:46;;;;;;;1.52;0.60;;;;;;;;;;5047609;27;20082;-78
2021/04/06 16:02:12;;;;;;;5.93;2.00;;;;;;;;;;5026880;28;20029;-79
2021/04/06 16:04:39;;;;;;;2.47;0.60;;;;;;;;;;5051502;28;20791;-79
2021/04/06 16:07:05;;;;;;;2.03;0.63;;;;;;;;;;5046837;28;20031;-78
2021/04/06 16:09:31;;;;;;;3.17;1.20;;;;;;;;;;5047122;28;20181;-78
2021/04/06 16:11:57;;;;;;;1.77;0.95;;;;;;;;;;5044386;28;20084;-78
2021/04/06 16:14:23;;;;;;;3.05;0.60;;;;;;;;;;5048441;28;20266;-77
2021/04/06 16:16:49;;;;;;;3.50;0.75;;;;;;;;;;5063761;27;20063;-77
2021/04/06 16:19:15;;;;;;;1.77;0.60;;;;;;;;;;5066740;27;20017;-79
2021/04/06 16:21:41;;;;;;;3.35;0.80;;;;;;;;;;5035771;28;20036;-76
2021/04/06 16:24:08;;;;;;;2.97;1.15;;;;;;;;;;5025237;28;20040;-77
2021/04/06 16:26:34;;;;;;;3.70;1.50;;;;;;;;;;5025725;28;20034;-78
2021/04/06 16:29:00;;;;;;;0.95;0.60;;;;;;;;;;5026220;28;20744;-78
2021/04/06 16:31:26;;;;;;;1.65;0.57;;;;;;;;;;5024692;28;20439;-77
2021/04/06 16:33:52;;;;;;;2.67;0.90;;;;;;;;;;5024862;28;20416;-77
2021/04/06 16:36:19;;;;;;;2.65;0.43;;;;;;;;;;5025490;28;20030;-79
2021/04/06 16:38:45;;;;;;;1.45;0.50;;;;;;;;;;5024732;28;20478;-75
2021/04/06 16:41:12;;;;;;;2.15;0.70;;;;;;;;;;5038016;28;20021;-76
2021/04/06 16:43:39;;;;;;;1.60;0.60;;;;;;;;;;5044949;28;20040;-78
2021/04/06 16:46:05;;;;;;;2.20;0.40;;;;;;;;;;5045033;28;20059;-79
2021/04/06 16:48:31;;;;;;;2.13;0.80;;;;;;;;;;5044607;28;20025;-76
2021/04/06 16:50:58;;;;;;;4.43;1.23;;;;;;;;;;5045520;28;20044;-79
2021/04/06 16:53:25;;;;;;;1.90;0.70;;;;;;;;;;5044052;28;20032;-79
2021/04/06 16:55:51;;;;;;;4.70;1.73;;;;;;;;;;5043988;28;20112;-78
2021/04/06 16:58:19;;;;;;;1.33;0.50;;;;;;;;;;5044664;28;20033;-78
2021/04/06 17:00:45;;;;;;;3.33;0.70;;;;;;;;;;5044616;28;20035;-78
2021/04/06 17:03:11;;;;;;;1.08;0.57;;;;;;;;;;5026863;28;20508;-76
2021/04/06 17:05:37;;;;;;;2.45;0.40;;;;;;;;;;5044477;28;20136;-78
2021/04/06 17:08:03;;;;;;;0.63;0.45;;;;;;;;;;5046463;28;20056;-79
2021/04/06 17:10:30;;;;;;;3.08;0.73;;;;;;;;;;5069246;28;20064;-79
2021/04/06 17:12:56;;;;;;;0.90;0.47;;;;;;;;;;5053120;27;20033;-75
2021/04/06 17:15:22;;;;;;;1.52;0.57;;;;;;;;;;5050280;28;20036;-78
2021/04/06 17:17:49;;;;;;;1.05;0.45;;;;;;;;;;5047904;28;20104;-77
2021/04/06 17:20:17;;;;;;;2.38;0.50;;;;;;;;;;5045036;28;20017;-79
2021/04/06 17:22:43;;;;;;;0.63;0.25;;;;;;;;;;5045630;28;20017;-78
2021/04/06 17:25:11;;;;;;;2.15;0.52;;;;;;;;;;5045821;28;20057;-78
2021/04/06 17:27:38;;;;;;;1.30;0.47;;;;;;;;;;5028006;28;20053;-79
2021/04/06 17:30:07;;;;;;;3.40;0.45;;;;;;;;;;5046260;28;20547;-78
2021/04/06 17:32:33;;;;;;;1.27;0.73;;;;;;;;;;5027842;28;20025;-78
2021/04/06 17:35:00;;;;;;;2.88;0.88;;;;;;;;;;5044908;28;20028;-78
2021/04/06 17:37:27;;;;;;;3.00;1.08;;;;;;;;;;5044026;28;20032;-77
2021/04/06 17:39:53;;;;;;;4.93;1.13;;;;;;;;;;5044575;28;20107;-77
2021/04/06 17:42:19;;;;;;;3.15;0.60;;;;;;;;;;5025814;28;20055;-76
2021/04/06 17:44:45;;;;;;;5.45;0.70;;;;;;;;;;5045284;28;20069;-77
2021/04/06 17:47:11;;;;;;;1.75;0.88;;;;;;;;;;5047741;28;20108;-78
2021/04/06 17:49:37;;;;;;;2.15;0.80;;;;;;;;;;5047849;28;20271;-77
2021/04/06 17:52:03;;;;;;;1.98;0.70;;;;;;;;;;5046903;28;20021;-78
2021/04/06 17:54:29;;;;;;;3.13;0.82;;;;;;;;;;5048832;28;20032;-79
2021/04/06 17:56:55;;;;;;;4.35;0.90;;;;;;;;;;5054231;28;20540;-78
2021/04/06 17:59:21;;;;;;;2.60;0.70;;;;;;;;;;5066314;28;20111;-78
2021/04/06 18:01:47;;;;;;;1.27;0.70;;;;;;;;;;5070342;28;20032;-78
2021/04/06 18:04:14;;;;;;;2.00;0.95;;;;;;;;;;5051188;28;20178;-77
2021/04/06 18:06:40;;;;;;;0.90;0.68;;;;;;;;;;5030147;28;20033;-79
2021/04/06 18:09:06;;;;;;;1.95;0.90;;;;;;;;;;5011496;28;20037;-78
2021/04/06 18:11:32;;;;;;;1.80;0.80;;;;;;;;;;5030520;28;20141;-78
2021/04/06 18:13:58;;;;;;;1.38;0.65;;;;;;;;;;5033702;28;20037;-78
2021/04/06 18:16:24;;;;;;;3.60;0.90;;;;;;;;;;5050448;28;20037;-73
2021/04/06 18:18:50;;;;;;;3.05;0.82;;;;;;;;;;5045940;28;20021;-76
2021/04/06 18:21:16;;;;;;;3.15;1.02;;;;;;;;;;5039034;27;20025;-77
2021/04/06 18:23:42;;;;;;;2.10;0.80;;;;;;;;;;5028768;28;20078;-78
2021/04/06 18:26:09;;;;;;;3.00;0.82;;;;;;;;;;5045149;28;20036;-78
2021/04/06 18:28:35;;;;;;;3.03;1.10;;;;;;;;;;5041480;28;20485;-78
2021/04/06 18:31:02;;;;;;;1.10;0.60;;;;;;;;;;5044169;28;20033;-77
2021/04/06 18:33:29;;;;;;;3.30;0.90;;;;;;;;;;5056562;28;20025;-78
2021/04/06 18:36:02;;;;;;;1.40;0.70;;;;;;;;;;5066749;28;20037;-78
2021/04/06 18:38:40;;;;;;;2.67;0.82;;;;;;;;;;5065494;27;20029;-78
2021/04/06 18:41:08;;;;;;;4.50;1.15;;;;;;;;;;5065510;27;20511;-77
2021/04/06 18:43:35;;;;;;;2.78;1.00;;;;;;;;;;5046896;28;20025;-78
2021/04/06 18:46:01;;;;;;;1.83;0.75;;;;;;;;;;5049269;28;20013;-77
2021/04/06 18:48:28;;;;;;;2.72;1.00;;;;;;;;;;5046303;28;20029;-77
2021/04/06 18:50:55;;;;;;;2.33;0.90;;;;;;;;;;5045928;28;20029;-78
2021/04/06 18:53:21;;;;;;;2.58;0.75;;;;;;;;;;5032470;28;20029;-78
2021/04/06 18:55:48;;;;;;;2.30;0.90;;;;;;;;;;5029944;28;20026;-78
